sensor_id;sensor_type;location;lat;lon;timestamp;pressure;altitude;pressure_sealevel;temperature;humidity
63281;BME280;49406;51.044;3.766;2023-06-19T00:00:37;100920.91;;;19.67;100.00
63281;BME280;49406;51.044;3.766;2023-06-19T00:03:12;100916.67;;;19.72;100.00
63281;BME280;49406;51.044;3.766;2023-06-19T00:05:47;100922.51;;;19.72;100.00
63281;BME280;49406;51.044;3.766;2023-06-19T00:08:22;100924.08;;;19.73;100.00
63281;BME280;49406;51.044;3.766;2023-06-19T00:10:57;100928.41;;;19.77;100.00
63281;BME280;49406;51.044;3.766;2023-06-19T00:13:31;100927.63;;;19.79;100.00
63281;BME280;49406;51.044;3.766;2023-06-19T00:16:07;100928.52;;;19.79;100.00
63281;BME280;49406;51.044;3.766;2023-06-19T00:18:41;100931.64;;;19.82;100.00
63281;BME280;49406;51.044;3.766;2023-06-19T00:21:16;100939.35;;;19.86;100.00
63281;BME280;49406;51.044;3.766;2023-06-19T00:23:51;100945.48;;;19.88;100.00
63281;BME280;49406;51.044;3.766;2023-06-19T00:26:26;100948.96;;;19.90;100.00
63281;BME280;49406;51.044;3.766;2023-06-19T00:29:00;100948.23;;;19.91;100.00
63281;BME280;49406;51.044;3.766;2023-06-19T00:31:35;100948.04;;;19.91;100.00
63281;BME280;49406;51.044;3.766;2023-06-19T00:34:10;100953.00;;;19.91;100.00
63281;BME280;49406;51.044;3.766;2023-06-19T00:36:45;100950.87;;;19.92;100.00
63281;BME280;49406;51.044;3.766;2023-06-19T00:39:20;100951.83;;;19.90;100.00
63281;BME280;49406;51.044;3.766;2023-06-19T00:41:55;100952.67;;;19.91;100.00
63281;BME280;49406;51.044;3.766;2023-06-19T00:44:29;100951.95;;;19.91;100.00
63281;BME280;49406;51.044;3.766;2023-06-19T00:47:05;100952.48;;;19.91;100.00
63281;BME280;49406;51.044;3.766;2023-06-19T00:49:40;100954.80;;;19.91;100.00
63281;BME280;49406;51.044;3.766;2023-06-19T00:52:15;100955.16;;;19.90;100.00
63281;BME280;49406;51.044;3.766;2023-06-19T00:54:50;100952.15;;;19.90;100.00
63281;BME280;49406;51.044;3.766;2023-06-19T00:57:25;100950.06;;;19.89;100.00
63281;BME280;49406;51.044;3.766;2023-06-19T00:59:59;100953.17;;;19.92;100.00
63281;BME280;49406;51.044;3.766;2023-06-19T01:02:37;100949.41;;;19.93;100.00
63281;BME280;49406;51.044;3.766;2023-06-19T01:05:12;100961.92;;;19.96;100.00
63281;BME280;49406;51.044;3.766;2023-06-19T01:07:52;100965.42;;;19.98;100.00
63281;BME280;49406;51.044;3.766;2023-06-19T01:10:34;100967.25;;;19.95;100.00
63281;BME280;49406;51.044;3.766;2023-06-19T01:13:14;100970.48;;;19.94;100.00
63281;BME280;49406;51.044;3.766;2023-06-19T01:15:52;100973.79;;;19.97;100.00
63281;BME280;49406;51.044;3.766;2023-06-19T01:18:27;100974.35;;;19.96;100.00
63281;BME280;49406;51.044;3.766;2023-06-19T01:21:12;100976.32;;;19.95;100.00
63281;BME280;49406;51.044;3.766;2023-06-19T01:23:48;100972.67;;;19.99;100.00
63281;BME280;49406;51.044;3.766;2023-06-19T01:26:24;100978.63;;;20.02;100.00
63281;BME280;49406;51.044;3.766;2023-06-19T01:29:00;100980.17;;;20.03;100.00
63281;BME280;49406;51.044;3.766;2023-06-19T01:31:38;100980.86;;;20.04;100.00
63281;BME280;49406;51.044;3.766;2023-06-19T01:34:18;100987.21;;;20.05;100.00
63281;BME280;49406;51.044;3.766;2023-06-19T01:36:55;100985.95;;;20.00;100.00
63281;BME280;49406;51.044;3.766;2023-06-19T01:39:31;100992.95;;;20.03;100.00
63281;BME280;49406;51.044;3.766;2023-06-19T01:42:08;100996.89;;;20.08;100.00
63281;BME280;49406;51.044;3.766;2023-06-19T01:44:44;100998.02;;;20.06;100.00
63281;BME280;49406;51.044;3.766;2023-06-19T01:47:20;101010.04;;;20.07;100.00
63281;BME280;49406;51.044;3.766;2023-06-19T01:49:55;101014.98;;;20.08;100.00
63281;BME280;49406;51.044;3.766;2023-06-19T01:52:29;101023.57;;;20.06;100.00
63281;BME280;49406;51.044;3.766;2023-06-19T01:55:04;101023.38;;;20.01;100.00
63281;BME280;49406;51.044;3.766;2023-06-19T01:57:39;101024.45;;;20.00;100.00
63281;BME280;49406;51.044;3.766;2023-06-19T02:00:15;101032.25;;;20.01;100.00
63281;BME280;49406;51.044;3.766;2023-06-19T02:02:50;101032.38;;;19.96;100.00
63281;BME280;49406;51.044;3.766;2023-06-19T02:05:25;101043.48;;;19.92;100.00
63281;BME280;49406;51.044;3.766;2023-06-19T02:07:59;101057.54;;;19.84;100.00
63281;BME280;49406;51.044;3.766;2023-06-19T02:10:34;101058.73;;;19.80;100.00
63281;BME280;49406;51.044;3.766;2023-06-19T02:13:08;101061.16;;;19.75;100.00
63281;BME280;49406;51.044;3.766;2023-06-19T02:15:43;101066.04;;;19.71;100.00
63281;BME280;49406;51.044;3.766;2023-06-19T02:18:18;101069.09;;;19.70;100.00
63281;BME280;49406;51.044;3.766;2023-06-19T02:20:52;101069.80;;;19.63;100.00
63281;BME280;49406;51.044;3.766;2023-06-19T02:23:27;101062.98;;;19.59;100.00
63281;BME280;49406;51.044;3.766;2023-06-19T02:26:02;101070.64;;;19.65;100.00
63281;BME280;49406;51.044;3.766;2023-06-19T02:28:36;101075.94;;;19.66;100.00
63281;BME280;49406;51.044;3.766;2023-06-19T02:31:11;101080.80;;;19.63;100.00
63281;BME280;49406;51.044;3.766;2023-06-19T02:33:46;101084.99;;;19.58;100.00
63281;BME280;49406;51.044;3.766;2023-06-19T02:36:21;101091.54;;;19.59;100.00
63281;BME280;49406;51.044;3.766;2023-06-19T02:38:55;101092.27;;;19.59;100.00
63281;BME280;49406;51.044;3.766;2023-06-19T02:41:30;101096.19;;;19.57;100.00
63281;BME280;49406;51.044;3.766;2023-06-19T02:44:04;101097.48;;;19.55;100.00
63281;BME280;49406;51.044;3.766;2023-06-19T02:46:39;101098.69;;;19.48;100.00
63281;BME280;49406;51.044;3.766;2023-06-19T02:49:14;101098.41;;;19.44;100.00
63281;BME280;49406;51.044;3.766;2023-06-19T02:51:48;101104.39;;;19.47;100.00
63281;BME280;49406;51.044;3.766;2023-06-19T02:54:23;101102.50;;;19.44;100.00
63281;BME280;49406;51.044;3.766;2023-06-19T02:56:58;101103.27;;;19.42;100.00
63281;BME280;49406;51.044;3.766;2023-06-19T02:59:33;101100.24;;;19.36;100.00
63281;BME280;49406;51.044;3.766;2023-06-19T03:02:07;101105.05;;;19.27;100.00
63281;BME280;49406;51.044;3.766;2023-06-19T03:04:42;101110.95;;;19.33;100.00
63281;BME280;49406;51.044;3.766;2023-06-19T03:07:17;101111.86;;;19.32;100.00
63281;BME280;49406;51.044;3.766;2023-06-19T03:09:52;101122.46;;;19.25;100.00
63281;BME280;49406;51.044;3.766;2023-06-19T03:12:27;101134.72;;;19.17;100.00
63281;BME280;49406;51.044;3.766;2023-06-19T03:15:01;101136.35;;;19.14;100.00
63281;BME280;49406;51.044;3.766;2023-06-19T03:17:36;101131.23;;;19.13;100.00
63281;BME280;49406;51.044;3.766;2023-06-19T03:20:12;101131.05;;;19.06;100.00
63281;BME280;49406;51.044;3.766;2023-06-19T03:22:46;101139.84;;;18.93;100.00
63281;BME280;49406;51.044;3.766;2023-06-19T03:25:21;101146.71;;;18.78;100.00
63281;BME280;49406;51.044;3.766;2023-06-19T03:27:55;101143.83;;;18.72;100.00
63281;BME280;49406;51.044;3.766;2023-06-19T03:30:30;101143.44;;;18.64;100.00
63281;BME280;49406;51.044;3.766;2023-06-19T03:33:05;101151.02;;;18.56;100.00
63281;BME280;49406;51.044;3.766;2023-06-19T03:35:39;101148.43;;;18.44;100.00
63281;BME280;49406;51.044;3.766;2023-06-19T03:38:15;101152.88;;;18.34;100.00
63281;BME280;49406;51.044;3.766;2023-06-19T03:40:50;101153.30;;;18.29;100.00
63281;BME280;49406;51.044;3.766;2023-06-19T03:43:24;101160.63;;;18.25;100.00
63281;BME280;49406;51.044;3.766;2023-06-19T03:45:59;101166.77;;;18.19;100.00
63281;BME280;49406;51.044;3.766;2023-06-19T03:48:34;101170.08;;;18.13;100.00
63281;BME280;49406;51.044;3.766;2023-06-19T03:51:08;101175.17;;;18.05;100.00
63281;BME280;49406;51.044;3.766;2023-06-19T03:53:41;101179.54;;;17.97;100.00
63281;BME280;49406;51.044;3.766;2023-06-19T03:56:16;101178.48;;;17.97;100.00
63281;BME280;49406;51.044;3.766;2023-06-19T03:58:50;101181.37;;;17.93;100.00
63281;BME280;49406;51.044;3.766;2023-06-19T04:01:25;101181.48;;;17.87;100.00
63281;BME280;49406;51.044;3.766;2023-06-19T04:04:00;101187.14;;;17.88;100.00
63281;BME280;49406;51.044;3.766;2023-06-19T04:06:34;101193.20;;;17.85;100.00
63281;BME280;49406;51.044;3.766;2023-06-19T04:09:09;101199.63;;;17.80;100.00
63281;BME280;49406;51.044;3.766;2023-06-19T04:11:43;101203.86;;;17.82;100.00
63281;BME280;49406;51.044;3.766;2023-06-19T04:14:18;101204.73;;;17.83;100.00
63281;BME280;49406;51.044;3.766;2023-06-19T04:16:56;101200.52;;;17.80;100.00
63281;BME280;49406;51.044;3.766;2023-06-19T04:19:30;101203.50;;;17.82;100.00
63281;BME280;49406;51.044;3.766;2023-06-19T04:22:06;101208.57;;;17.86;100.00
63281;BME280;49406;51.044;3.766;2023-06-19T04:24:40;101207.86;;;17.86;100.00
63281;BME280;49406;51.044;3.766;2023-06-19T04:27:15;101212.13;;;17.85;100.00
63281;BME280;49406;51.044;3.766;2023-06-19T04:29:49;101214.86;;;17.90;100.00
63281;BME280;49406;51.044;3.766;2023-06-19T04:32:26;101218.36;;;17.92;100.00
63281;BME280;49406;51.044;3.766;2023-06-19T04:35:00;101219.46;;;17.90;100.00
63281;BME280;49406;51.044;3.766;2023-06-19T04:37:35;101220.02;;;17.89;100.00
63281;BME280;49406;51.044;3.766;2023-06-19T04:40:11;101219.90;;;17.86;100.00
63281;BME280;49406;51.044;3.766;2023-06-19T04:42:45;101220.79;;;17.86;100.00
63281;BME280;49406;51.044;3.766;2023-06-19T04:45:20;101219.92;;;17.94;100.00
63281;BME280;49406;51.044;3.766;2023-06-19T04:47:55;101226.11;;;17.94;100.00
63281;BME280;49406;51.044;3.766;2023-06-19T04:50:29;101228.02;;;17.96;100.00
63281;BME280;49406;51.044;3.766;2023-06-19T04:53:04;101226.63;;;17.95;100.00
63281;BME280;49406;51.044;3.766;2023-06-19T04:55:39;101226.47;;;17.94;100.00
63281;BME280;49406;51.044;3.766;2023-06-19T04:58:14;101222.14;;;18.00;100.00
63281;BME280;49406;51.044;3.766;2023-06-19T05:00:48;101224.67;;;18.07;100.00
63281;BME280;49406;51.044;3.766;2023-06-19T05:03:22;101229.59;;;18.09;100.00
63281;BME280;49406;51.044;3.766;2023-06-19T05:05:57;101235.01;;;18.13;100.00
63281;BME280;49406;51.044;3.766;2023-06-19T05:08:32;101242.53;;;18.18;100.00
63281;BME280;49406;51.044;3.766;2023-06-19T05:11:06;101244.45;;;18.20;100.00
63281;BME280;49406;51.044;3.766;2023-06-19T05:13:41;101239.34;;;18.28;100.00
63281;BME280;49406;51.044;3.766;2023-06-19T05:16:15;101241.20;;;18.35;100.00
63281;BME280;49406;51.044;3.766;2023-06-19T05:18:51;101245.60;;;18.36;100.00
63281;BME280;49406;51.044;3.766;2023-06-19T05:21:25;101247.31;;;18.39;100.00
63281;BME280;49406;51.044;3.766;2023-06-19T05:24:00;101244.20;;;18.43;100.00
63281;BME280;49406;51.044;3.766;2023-06-19T05:26:35;101246.37;;;18.51;100.00
63281;BME280;49406;51.044;3.766;2023-06-19T05:29:09;101240.44;;;18.56;100.00
63281;BME280;49406;51.044;3.766;2023-06-19T05:31:44;101240.73;;;18.61;100.00
63281;BME280;49406;51.044;3.766;2023-06-19T05:34:19;101242.80;;;18.74;100.00
63281;BME280;49406;51.044;3.766;2023-06-19T05:36:53;101236.42;;;18.92;100.00
63281;BME280;49406;51.044;3.766;2023-06-19T05:39:28;101233.95;;;19.08;100.00
63281;BME280;49406;51.044;3.766;2023-06-19T05:42:02;101238.67;;;19.20;100.00
63281;BME280;49406;51.044;3.766;2023-06-19T05:44:37;101245.11;;;19.34;100.00
63281;BME280;49406;51.044;3.766;2023-06-19T05:47:13;101245.25;;;19.53;100.00
63281;BME280;49406;51.044;3.766;2023-06-19T05:49:50;101257.48;;;19.69;98.99
63281;BME280;49406;51.044;3.766;2023-06-19T05:52:24;101254.92;;;19.65;97.56
63281;BME280;49406;51.044;3.766;2023-06-19T05:54:59;101257.32;;;19.61;98.38
63281;BME280;49406;51.044;3.766;2023-06-19T05:57:34;101255.84;;;19.86;97.15
63281;BME280;49406;51.044;3.766;2023-06-19T06:00:11;101258.16;;;20.01;96.05
63281;BME280;49406;51.044;3.766;2023-06-19T06:02:47;101268.79;;;20.16;95.06
63281;BME280;49406;51.044;3.766;2023-06-19T06:05:22;101274.87;;;20.22;95.10
63281;BME280;49406;51.044;3.766;2023-06-19T06:07:57;101280.34;;;20.30;94.73
63281;BME280;49406;51.044;3.766;2023-06-19T06:10:32;101287.79;;;20.37;93.36
63281;BME280;49406;51.044;3.766;2023-06-19T06:13:07;101291.83;;;20.39;93.22
63281;BME280;49406;51.044;3.766;2023-06-19T06:15:41;101294.16;;;20.53;92.33
63281;BME280;49406;51.044;3.766;2023-06-19T06:18:16;101300.73;;;20.46;91.28
63281;BME280;49406;51.044;3.766;2023-06-19T06:20:51;101302.68;;;20.38;92.23
63281;BME280;49406;51.044;3.766;2023-06-19T06:23:25;101308.37;;;20.30;92.37
63281;BME280;49406;51.044;3.766;2023-06-19T06:26:00;101307.12;;;20.31;92.41
63281;BME280;49406;51.044;3.766;2023-06-19T06:28:35;101308.84;;;20.34;91.59
63281;BME280;49406;51.044;3.766;2023-06-19T06:31:11;101312.25;;;20.32;91.74
63281;BME280;49406;51.044;3.766;2023-06-19T06:33:46;101320.41;;;20.40;92.11
63281;BME280;49406;51.044;3.766;2023-06-19T06:36:21;101330.58;;;20.59;91.57
63281;BME280;49406;51.044;3.766;2023-06-19T06:38:56;101334.73;;;20.64;91.09
63281;BME280;49406;51.044;3.766;2023-06-19T06:41:30;101338.56;;;20.60;91.24
63281;BME280;49406;51.044;3.766;2023-06-19T06:44:06;101340.52;;;20.54;91.43
63281;BME280;49406;51.044;3.766;2023-06-19T06:46:40;101335.69;;;20.55;91.48
63281;BME280;49406;51.044;3.766;2023-06-19T06:49:15;101338.95;;;20.52;91.38
63281;BME280;49406;51.044;3.766;2023-06-19T06:51:50;101338.44;;;20.51;91.03
63281;BME280;49406;51.044;3.766;2023-06-19T06:54:25;101345.83;;;20.54;90.52
63281;BME280;49406;51.044;3.766;2023-06-19T06:56:59;101350.36;;;20.42;91.39
63281;BME280;49406;51.044;3.766;2023-06-19T06:59:34;101348.84;;;20.39;91.29
63281;BME280;49406;51.044;3.766;2023-06-19T07:02:09;101349.70;;;20.41;91.66
63281;BME280;49406;51.044;3.766;2023-06-19T07:04:43;101356.34;;;20.45;91.64
63281;BME280;49406;51.044;3.766;2023-06-19T07:07:18;101362.55;;;20.60;91.37
63281;BME280;49406;51.044;3.766;2023-06-19T07:09:54;101365.80;;;20.72;90.02
63281;BME280;49406;51.044;3.766;2023-06-19T07:12:28;101368.30;;;20.71;89.36
63281;BME280;49406;51.044;3.766;2023-06-19T07:15:03;101370.38;;;20.67;89.29
63281;BME280;49406;51.044;3.766;2023-06-19T07:17:38;101371.86;;;20.71;89.97
63281;BME280;49406;51.044;3.766;2023-06-19T07:20:13;101372.16;;;20.73;90.38
63281;BME280;49406;51.044;3.766;2023-06-19T07:22:49;101377.21;;;20.84;90.63
63281;BME280;49406;51.044;3.766;2023-06-19T07:25:24;101377.88;;;20.79;90.40
63281;BME280;49406;51.044;3.766;2023-06-19T07:27:59;101378.79;;;20.78;90.71
63281;BME280;49406;51.044;3.766;2023-06-19T07:30:34;101381.77;;;20.87;90.53
63281;BME280;49406;51.044;3.766;2023-06-19T07:33:09;101379.48;;;20.99;90.26
63281;BME280;49406;51.044;3.766;2023-06-19T07:35:43;101377.48;;;21.08;90.40
63281;BME280;49406;51.044;3.766;2023-06-19T07:38:18;101382.92;;;21.24;89.64
63281;BME280;49406;51.044;3.766;2023-06-19T07:40:52;101383.85;;;21.42;87.61
63281;BME280;49406;51.044;3.766;2023-06-19T07:43:27;101376.90;;;21.43;86.40
63281;BME280;49406;51.044;3.766;2023-06-19T07:46:01;101367.49;;;21.42;86.45
63281;BME280;49406;51.044;3.766;2023-06-19T07:48:36;101367.17;;;21.35;86.68
63281;BME280;49406;51.044;3.766;2023-06-19T07:51:10;101370.31;;;21.37;86.95
63281;BME280;49406;51.044;3.766;2023-06-19T07:53:45;101369.75;;;21.44;87.23
63281;BME280;49406;51.044;3.766;2023-06-19T07:56:19;101366.46;;;21.65;86.65
63281;BME280;49406;51.044;3.766;2023-06-19T07:58:54;101366.55;;;22.04;84.71
63281;BME280;49406;51.044;3.766;2023-06-19T08:01:28;101360.62;;;22.29;82.86
63281;BME280;49406;51.044;3.766;2023-06-19T08:04:03;101369.80;;;22.42;82.98
63281;BME280;49406;51.044;3.766;2023-06-19T08:06:36;101378.72;;;22.59;81.71
63281;BME280;49406;51.044;3.766;2023-06-19T08:09:11;101386.43;;;22.78;81.18
63281;BME280;49406;51.044;3.766;2023-06-19T08:11:47;101381.23;;;22.90;79.59
63281;BME280;49406;51.044;3.766;2023-06-19T08:14:21;101384.50;;;23.04;80.18
63281;BME280;49406;51.044;3.766;2023-06-19T08:16:56;101384.02;;;23.08;78.47
63281;BME280;49406;51.044;3.766;2023-06-19T08:19:30;101388.96;;;23.08;78.80
63281;BME280;49406;51.044;3.766;2023-06-19T08:22:06;101389.60;;;23.00;78.45
63281;BME280;49406;51.044;3.766;2023-06-19T08:24:40;101390.34;;;22.95;78.46
63281;BME280;49406;51.044;3.766;2023-06-19T08:27:15;101388.86;;;22.87;78.55
63281;BME280;49406;51.044;3.766;2023-06-19T08:29:50;101389.09;;;22.90;78.49
63281;BME280;49406;51.044;3.766;2023-06-19T08:32:24;101389.70;;;23.03;78.77
63281;BME280;49406;51.044;3.766;2023-06-19T08:35:00;101390.88;;;23.15;78.36
63281;BME280;49406;51.044;3.766;2023-06-19T08:37:34;101388.70;;;23.36;77.73
63281;BME280;49406;51.044;3.766;2023-06-19T08:40:11;101391.56;;;23.80;76.34
63281;BME280;49406;51.044;3.766;2023-06-19T08:42:46;101387.27;;;24.31;75.36
63281;BME280;49406;51.044;3.766;2023-06-19T08:45:21;101393.96;;;24.81;74.19
63281;BME280;49406;51.044;3.766;2023-06-19T08:48:00;101393.61;;;25.19;70.66
63281;BME280;49406;51.044;3.766;2023-06-19T08:50:36;101389.00;;;25.13;67.97
63281;BME280;49406;51.044;3.766;2023-06-19T08:53:11;101396.08;;;25.43;67.86
63281;BME280;49406;51.044;3.766;2023-06-19T08:55:46;101393.77;;;25.79;66.60
63281;BME280;49406;51.044;3.766;2023-06-19T08:58:25;101391.29;;;25.93;64.20
63281;BME280;49406;51.044;3.766;2023-06-19T09:01:00;101399.50;;;25.94;65.60
63281;BME280;49406;51.044;3.766;2023-06-19T09:03:35;101399.77;;;26.11;65.12
63281;BME280;49406;51.044;3.766;2023-06-19T09:06:10;101405.00;;;26.07;62.20
63281;BME280;49406;51.044;3.766;2023-06-19T09:08:44;101414.05;;;26.01;63.83
63281;BME280;49406;51.044;3.766;2023-06-19T09:11:20;101408.70;;;26.12;64.50
63281;BME280;49406;51.044;3.766;2023-06-19T09:13:59;101408.92;;;26.14;64.19
63281;BME280;49406;51.044;3.766;2023-06-19T09:16:40;101407.21;;;26.20;64.95
63281;BME280;49406;51.044;3.766;2023-06-19T09:19:21;101407.23;;;26.20;65.15
63281;BME280;49406;51.044;3.766;2023-06-19T09:22:00;101410.80;;;26.13;64.21
63281;BME280;49406;51.044;3.766;2023-06-19T09:24:36;101413.90;;;25.93;63.28
63281;BME280;49406;51.044;3.766;2023-06-19T09:27:12;101409.87;;;26.21;63.70
63281;BME280;49406;51.044;3.766;2023-06-19T09:29:49;101409.98;;;26.23;63.51
63281;BME280;49406;51.044;3.766;2023-06-19T09:32:25;101412.96;;;26.32;64.08
63281;BME280;49406;51.044;3.766;2023-06-19T09:35:01;101408.02;;;26.45;63.71
63281;BME280;49406;51.044;3.766;2023-06-19T09:37:39;101404.83;;;26.73;63.93
63281;BME280;49406;51.044;3.766;2023-06-19T09:40:14;101407.46;;;27.09;62.14
63281;BME280;49406;51.044;3.766;2023-06-19T09:42:51;101411.17;;;27.41;62.50
63281;BME280;49406;51.044;3.766;2023-06-19T09:45:30;101413.08;;;27.56;59.94
63281;BME280;49406;51.044;3.766;2023-06-19T09:48:07;101408.44;;;27.39;59.20
63281;BME280;49406;51.044;3.766;2023-06-19T09:50:50;101408.41;;;27.29;58.86
63281;BME280;49406;51.044;3.766;2023-06-19T09:53:26;101402.81;;;27.09;59.50
63281;BME280;49406;51.044;3.766;2023-06-19T09:56:00;101389.94;;;27.15;59.52
63281;BME280;49406;51.044;3.766;2023-06-19T09:58:36;101396.61;;;27.55;59.08
63281;BME280;49406;51.044;3.766;2023-06-19T10:01:10;101389.33;;;28.00;58.51
63281;BME280;49406;51.044;3.766;2023-06-19T10:03:44;101400.91;;;28.30;56.48
63281;BME280;49406;51.044;3.766;2023-06-19T10:06:19;101397.10;;;28.59;55.54
63281;BME280;49406;51.044;3.766;2023-06-19T10:09:04;101397.28;;;28.86;54.96
63281;BME280;49406;51.044;3.766;2023-06-19T10:11:50;101399.38;;;29.05;53.39
63281;BME280;49406;51.044;3.766;2023-06-19T10:14:25;101402.19;;;29.01;52.80
63281;BME280;49406;51.044;3.766;2023-06-19T10:17:09;101403.82;;;28.97;52.08
63281;BME280;49406;51.044;3.766;2023-06-19T10:19:51;101400.16;;;28.98;51.41
63281;BME280;49406;51.044;3.766;2023-06-19T10:22:31;101404.89;;;29.13;51.06
63281;BME280;49406;51.044;3.766;2023-06-19T10:25:06;101408.18;;;29.18;50.81
63281;BME280;49406;51.044;3.766;2023-06-19T10:27:41;101408.52;;;29.51;50.98
63281;BME280;49406;51.044;3.766;2023-06-19T10:30:19;101416.52;;;29.76;50.44
63281;BME280;49406;51.044;3.766;2023-06-19T10:32:53;101413.18;;;29.85;49.27
63281;BME280;49406;51.044;3.766;2023-06-19T10:35:28;101408.90;;;29.82;48.83
63281;BME280;49406;51.044;3.766;2023-06-19T10:38:02;101413.02;;;29.91;48.74
63281;BME280;49406;51.044;3.766;2023-06-19T10:40:37;101413.79;;;30.07;48.26
63281;BME280;49406;51.044;3.766;2023-06-19T10:43:12;101411.17;;;30.14;48.71
63281;BME280;49406;51.044;3.766;2023-06-19T10:45:53;101410.77;;;29.98;46.55
63281;BME280;49406;51.044;3.766;2023-06-19T10:48:28;101408.92;;;29.76;47.46
63281;BME280;49406;51.044;3.766;2023-06-19T10:51:03;101405.38;;;29.69;46.39
63281;BME280;49406;51.044;3.766;2023-06-19T10:53:38;101407.28;;;29.38;48.29
63281;BME280;49406;51.044;3.766;2023-06-19T10:56:13;101409.75;;;29.60;48.80
63281;BME280;49406;51.044;3.766;2023-06-19T10:58:47;101413.45;;;29.84;47.28
63281;BME280;49406;51.044;3.766;2023-06-19T11:01:22;101406.79;;;29.75;47.55
63281;BME280;49406;51.044;3.766;2023-06-19T11:03:57;101408.89;;;29.59;47.36
63281;BME280;49406;51.044;3.766;2023-06-19T11:06:31;101405.80;;;29.33;47.87
63281;BME280;49406;51.044;3.766;2023-06-19T11:09:07;101405.39;;;29.49;48.28
63281;BME280;49406;51.044;3.766;2023-06-19T11:11:44;101405.82;;;29.39;47.85
63281;BME280;49406;51.044;3.766;2023-06-19T11:14:19;101405.17;;;29.43;47.45
63281;BME280;49406;51.044;3.766;2023-06-19T11:16:53;101406.77;;;29.58;47.31
63281;BME280;49406;51.044;3.766;2023-06-19T11:19:32;101403.64;;;29.48;47.70
63281;BME280;49406;51.044;3.766;2023-06-19T11:22:07;101404.28;;;29.81;46.94
63281;BME280;49406;51.044;3.766;2023-06-19T11:24:46;101399.83;;;30.28;47.23
63281;BME280;49406;51.044;3.766;2023-06-19T11:27:23;101403.52;;;30.35;44.00
63281;BME280;49406;51.044;3.766;2023-06-19T11:30:00;101408.21;;;30.35;45.51
63281;BME280;49406;51.044;3.766;2023-06-19T11:32:38;101400.77;;;30.57;44.95
63281;BME280;49406;51.044;3.766;2023-06-19T11:35:16;101398.03;;;30.71;44.18
63281;BME280;49406;51.044;3.766;2023-06-19T11:37:52;101399.80;;;30.85;44.95
63281;BME280;49406;51.044;3.766;2023-06-19T11:40:27;101402.23;;;31.15;43.04
63281;BME280;49406;51.044;3.766;2023-06-19T11:43:02;101413.02;;;31.13;43.31
63281;BME280;49406;51.044;3.766;2023-06-19T11:45:47;101405.02;;;31.22;43.88
63281;BME280;49406;51.044;3.766;2023-06-19T11:48:25;101407.45;;;31.47;41.94
63281;BME280;49406;51.044;3.766;2023-06-19T11:51:01;101402.19;;;31.32;41.11
63281;BME280;49406;51.044;3.766;2023-06-19T11:53:35;101398.67;;;31.22;41.91
63281;BME280;49406;51.044;3.766;2023-06-19T11:56:10;101396.95;;;30.87;42.36
63281;BME280;49406;51.044;3.766;2023-06-19T11:58:45;101395.73;;;30.49;43.31
63281;BME280;49406;51.044;3.766;2023-06-19T12:01:19;101392.19;;;30.59;43.07
63281;BME280;49406;51.044;3.766;2023-06-19T12:03:54;101389.02;;;30.60;41.96
63281;BME280;49406;51.044;3.766;2023-06-19T12:06:28;101391.81;;;30.67;42.65
63281;BME280;49406;51.044;3.766;2023-06-19T12:09:03;101383.10;;;30.27;42.77
63281;BME280;49406;51.044;3.766;2023-06-19T12:11:39;101380.75;;;29.71;44.27
63281;BME280;49406;51.044;3.766;2023-06-19T12:14:13;101386.42;;;29.61;45.38
63281;BME280;49406;51.044;3.766;2023-06-19T12:16:48;101386.98;;;29.95;43.91
63281;BME280;49406;51.044;3.766;2023-06-19T12:19:22;101381.69;;;30.29;43.34
63281;BME280;49406;51.044;3.766;2023-06-19T12:21:57;101381.55;;;30.61;42.80
63281;BME280;49406;51.044;3.766;2023-06-19T12:24:32;101378.39;;;30.65;42.43
63281;BME280;49406;51.044;3.766;2023-06-19T12:27:07;101378.84;;;30.88;42.30
63281;BME280;49406;51.044;3.766;2023-06-19T12:29:41;101378.08;;;31.04;41.10
63281;BME280;49406;51.044;3.766;2023-06-19T12:32:16;101369.26;;;30.75;41.08
63281;BME280;49406;51.044;3.766;2023-06-19T12:34:51;101369.95;;;30.75;42.55
63281;BME280;49406;51.044;3.766;2023-06-19T12:37:25;101372.98;;;31.02;41.67
63281;BME280;49406;51.044;3.766;2023-06-19T12:39:59;101373.16;;;31.18;41.48
63281;BME280;49406;51.044;3.766;2023-06-19T12:42:35;101368.73;;;31.39;40.05
63281;BME280;49406;51.044;3.766;2023-06-19T12:45:11;101362.39;;;31.22;40.13
63281;BME280;49406;51.044;3.766;2023-06-19T12:47:46;101354.23;;;31.09;39.52
63281;BME280;49406;51.044;3.766;2023-06-19T12:50:20;101353.85;;;30.86;40.68
63281;BME280;49406;51.044;3.766;2023-06-19T12:52:55;101351.73;;;30.94;40.16
63281;BME280;49406;51.044;3.766;2023-06-19T12:55:29;101347.90;;;30.78;39.62
63281;BME280;49406;51.044;3.766;2023-06-19T12:58:04;101348.36;;;30.69;39.43
63281;BME280;49406;51.044;3.766;2023-06-19T13:00:39;101351.00;;;30.86;38.51
63281;BME280;49406;51.044;3.766;2023-06-19T13:03:13;101347.64;;;31.03;37.87
63281;BME280;49406;51.044;3.766;2023-06-19T13:05:48;101344.95;;;31.03;37.32
63281;BME280;49406;51.044;3.766;2023-06-19T13:08:23;101343.61;;;31.12;38.37
63281;BME280;49406;51.044;3.766;2023-06-19T13:10:57;101346.13;;;31.37;37.52
63281;BME280;49406;51.044;3.766;2023-06-19T13:13:32;101345.63;;;31.37;37.66
63281;BME280;49406;51.044;3.766;2023-06-19T13:16:06;101345.92;;;31.28;37.95
63281;BME280;49406;51.044;3.766;2023-06-19T13:18:42;101346.20;;;31.39;37.59
63281;BME280;49406;51.044;3.766;2023-06-19T13:21:17;101346.20;;;31.59;37.02
63281;BME280;49406;51.044;3.766;2023-06-19T13:23:52;101346.91;;;31.67;37.38
63281;BME280;49406;51.044;3.766;2023-06-19T13:26:26;101342.82;;;31.54;37.62